sensor_id;sensor_type;location;lat;lon;timestamp;pressure;altitude;pressure_sealevel;temperature;humidity
13767;BME280;47980;48.794;9.176;2023-10-09T00:01:12;98860.91;;;14.77;84.14
13767;BME280;47980;48.794;9.176;2023-10-09T00:03:44;98855.38;;;14.82;83.88
13767;BME280;47980;48.794;9.176;2023-10-09T00:06:16;98857.25;;;14.81;84.32
13767;BME280;47980;48.794;9.176;2023-10-09T00:08:54;98857.81;;;14.87;83.68
13767;BME280;47980;48.794;9.176;2023-10-09T00:11:28;98859.47;;;14.91;83.51
13767;BME280;47980;48.794;9.176;2023-10-09T00:14:00;98857.81;;;14.87;83.80
13767;BME280;47980;48.794;9.176;2023-10-09T00:16:34;98856.38;;;14.89;83.13
13767;BME280;47980;48.794;9.176;2023-10-09T00:19:10;98862.72;;;15.09;82.92
13767;BME280;47980;48.794;9.176;2023-10-09T00:21:47;98864.38;;;15.02;82.59
13767;BME280;47980;48.794;9.176;2023-10-09T00:24:20;98869.75;;;14.89;83.23
13767;BME280;47980;48.794;9.176;2023-10-09T00:26:55;98863.38;;;14.82;84.08
13767;BME280;47980;48.794;9.176;2023-10-09T00:29:31;98863.28;;;14.78;84.25
13767;BME280;47980;48.794;9.176;2023-10-09T00:32:06;98854.25;;;14.71;84.52
13767;BME280;47980;48.794;9.176;2023-10-09T00:34:43;98845.44;;;14.70;84.68
13767;BME280;47980;48.794;9.176;2023-10-09T00:37:20;98846.03;;;14.76;83.65
13767;BME280;47980;48.794;9.176;2023-10-09T00:39:57;98846.13;;;14.79;83.25
13767;BME280;47980;48.794;9.176;2023-10-09T00:42:29;98844.78;;;14.73;83.58
13767;BME280;47980;48.794;9.176;2023-10-09T00:45:04;98840.31;;;14.77;82.22
13767;BME280;47980;48.794;9.176;2023-10-09T00:47:38;98841.44;;;14.76;82.12
13767;BME280;47980;48.794;9.176;2023-10-09T00:50:11;98845.56;;;14.74;81.68
13767;BME280;47980;48.794;9.176;2023-10-09T00:52:52;98826.97;;;14.77;81.23
13767;BME280;47980;48.794;9.176;2023-10-09T00:55:32;98825.44;;;14.76;81.30
13767;BME280;47980;48.794;9.176;2023-10-09T00:58:13;98819.19;;;14.84;81.33
13767;BME280;47980;48.794;9.176;2023-10-09T01:00:45;98824.31;;;14.89;80.71
13767;BME280;47980;48.794;9.176;2023-10-09T01:03:18;98821.97;;;14.88;80.56
13767;BME280;47980;48.794;9.176;2023-10-09T01:05:51;98820.75;;;14.85;80.20
13767;BME280;47980;48.794;9.176;2023-10-09T01:08:28;98818.41;;;14.84;81.68
13767;BME280;47980;48.794;9.176;2023-10-09T01:11:01;98814.50;;;14.81;80.91
13767;BME280;47980;48.794;9.176;2023-10-09T01:13:41;98814.84;;;14.80;80.85
13767;BME280;47980;48.794;9.176;2023-10-09T01:16:23;98818.88;;;14.86;81.53
13767;BME280;47980;48.794;9.176;2023-10-09T01:18:55;98815.06;;;14.87;80.89
13767;BME280;47980;48.794;9.176;2023-10-09T01:21:27;98816.97;;;14.86;81.43
13767;BME280;47980;48.794;9.176;2023-10-09T01:24:03;98812.63;;;14.82;81.64
13767;BME280;47980;48.794;9.176;2023-10-09T01:26:39;98809.84;;;14.90;81.93
13767;BME280;47980;48.794;9.176;2023-10-09T01:29:16;98801.16;;;14.93;81.70
13767;BME280;47980;48.794;9.176;2023-10-09T01:31:50;98799.22;;;15.06;80.70
13767;BME280;47980;48.794;9.176;2023-10-09T01:34:26;98799.66;;;15.21;79.10
13767;BME280;47980;48.794;9.176;2023-10-09T01:37:11;98805.16;;;15.00;81.00
13767;BME280;47980;48.794;9.176;2023-10-09T01:39:50;98796.34;;;14.99;81.50
13767;BME280;47980;48.794;9.176;2023-10-09T01:42:28;98806.06;;;15.04;82.23
13767;BME280;47980;48.794;9.176;2023-10-09T01:45:05;98804.47;;;15.03;82.41
13767;BME280;47980;48.794;9.176;2023-10-09T01:47:57;98799.13;;;15.03;82.08
13767;BME280;47980;48.794;9.176;2023-10-09T01:50:28;98788.91;;;15.05;82.24
13767;BME280;47980;48.794;9.176;2023-10-09T01:53:01;98788.78;;;15.01;83.26
13767;BME280;47980;48.794;9.176;2023-10-09T01:55:37;98790.44;;;15.06;82.66
13767;BME280;47980;48.794;9.176;2023-10-09T01:58:10;98786.13;;;15.01;83.08
13767;BME280;47980;48.794;9.176;2023-10-09T02:00:48;98779.34;;;15.04;82.57
13767;BME280;47980;48.794;9.176;2023-10-09T02:03:19;98773.53;;;15.02;82.11
13767;BME280;47980;48.794;9.176;2023-10-09T02:05:53;98781.91;;;15.00;81.87
13767;BME280;47980;48.794;9.176;2023-10-09T02:08:29;98775.31;;;14.98;81.54
13767;BME280;47980;48.794;9.176;2023-10-09T02:11:06;98773.31;;;14.95;82.51
13767;BME280;47980;48.794;9.176;2023-10-09T02:13:44;98773.31;;;14.95;82.68
13767;BME280;47980;48.794;9.176;2023-10-09T02:16:23;98778.22;;;14.92;82.29
13767;BME280;47980;48.794;9.176;2023-10-09T02:18:59;98767.56;;;14.92;81.05
13767;BME280;47980;48.794;9.176;2023-10-09T02:21:36;98772.53;;;14.94;80.58
13767;BME280;47980;48.794;9.176;2023-10-09T02:24:11;98765.31;;;14.95;80.17
13767;BME280;47980;48.794;9.176;2023-10-09T02:26:58;98770.09;;;15.01;79.99
13767;BME280;47980;48.794;9.176;2023-10-09T02:29:38;98766.84;;;14.96;79.70
13767;BME280;47980;48.794;9.176;2023-10-09T02:32:12;98765.50;;;15.02;79.29
13767;BME280;47980;48.794;9.176;2023-10-09T02:34:47;98767.75;;;15.00;80.27
13767;BME280;47980;48.794;9.176;2023-10-09T02:37:21;98764.19;;;14.96;79.17
13767;BME280;47980;48.794;9.176;2023-10-09T02:39:55;98771.94;;;15.13;77.83
13767;BME280;47980;48.794;9.176;2023-10-09T02:42:28;98764.34;;;15.27;76.26
13767;BME280;47980;48.794;9.176;2023-10-09T02:44:59;98769.94;;;15.10;78.24
13767;BME280;47980;48.794;9.176;2023-10-09T02:47:34;98766.63;;;15.01;79.16
13767;BME280;47980;48.794;9.176;2023-10-09T02:50:09;98764.38;;;15.03;79.50
13767;BME280;47980;48.794;9.176;2023-10-09T02:52:42;98768.53;;;15.00;80.87
13767;BME280;47980;48.794;9.176;2023-10-09T02:55:13;98768.84;;;14.99;80.53
13767;BME280;47980;48.794;9.176;2023-10-09T02:57:56;98763.19;;;15.00;81.44
13767;BME280;47980;48.794;9.176;2023-10-09T03:00:37;98767.19;;;14.94;81.61
13767;BME280;47980;48.794;9.176;2023-10-09T03:03:09;98757.63;;;14.93;80.87
13767;BME280;47980;48.794;9.176;2023-10-09T03:05:40;98756.88;;;14.92;81.25
13767;BME280;47980;48.794;9.176;2023-10-09T03:08:12;98755.06;;;14.97;81.44
13767;BME280;47980;48.794;9.176;2023-10-09T03:10:44;98751.16;;;14.94;80.73
13767;BME280;47980;48.794;9.176;2023-10-09T03:13:16;98751.94;;;14.95;81.65
13767;BME280;47980;48.794;9.176;2023-10-09T03:15:49;98741.91;;;15.04;80.76
13767;BME280;47980;48.794;9.176;2023-10-09T03:18:22;98743.00;;;15.03;80.32
13767;BME280;47980;48.794;9.176;2023-10-09T03:20:54;98739.09;;;15.12;80.27
13767;BME280;47980;48.794;9.176;2023-10-09T03:23:26;98734.53;;;15.13;78.90
13767;BME280;47980;48.794;9.176;2023-10-09T03:25:57;98737.66;;;15.15;79.49
13767;BME280;47980;48.794;9.176;2023-10-09T03:28:30;98733.75;;;15.12;80.01
13767;BME280;47980;48.794;9.176;2023-10-09T03:31:02;98734.44;;;15.09;80.34
13767;BME280;47980;48.794;9.176;2023-10-09T03:33:36;98737.09;;;15.09;79.64
13767;BME280;47980;48.794;9.176;2023-10-09T03:36:08;98730.84;;;15.17;79.41
13767;BME280;47980;48.794;9.176;2023-10-09T03:38:40;98738.84;;;15.17;79.42
13767;BME280;47980;48.794;9.176;2023-10-09T03:41:12;98733.59;;;15.21;79.30
13767;BME280;47980;48.794;9.176;2023-10-09T03:43:45;98739.56;;;15.14;79.50
13767;BME280;47980;48.794;9.176;2023-10-09T03:46:17;98733.09;;;15.15;80.46
13767;BME280;47980;48.794;9.176;2023-10-09T03:48:52;98733.09;;;15.15;80.83
13767;BME280;47980;48.794;9.176;2023-10-09T03:51:27;98733.09;;;15.15;80.73
13767;BME280;47980;48.794;9.176;2023-10-09T03:53:58;98732.44;;;15.06;81.05
13767;BME280;47980;48.794;9.176;2023-10-09T03:56:34;98727.09;;;15.06;80.99
13767;BME280;47980;48.794;9.176;2023-10-09T03:59:06;98730.47;;;15.03;82.08
13767;BME280;47980;48.794;9.176;2023-10-09T04:01:40;98726.56;;;15.01;82.69
13767;BME280;47980;48.794;9.176;2023-10-09T04:04:14;98730.69;;;14.98;82.34
13767;BME280;47980;48.794;9.176;2023-10-09T04:06:47;98731.91;;;15.01;82.02
13767;BME280;47980;48.794;9.176;2023-10-09T04:09:18;98722.66;;;14.98;81.48
13767;BME280;47980;48.794;9.176;2023-10-09T04:12:06;98724.69;;;14.89;81.90
13767;BME280;47980;48.794;9.176;2023-10-09T04:14:56;98736.59;;;14.91;82.08
13767;BME280;47980;48.794;9.176;2023-10-09T04:17:31;98732.03;;;14.80;82.47
13767;BME280;47980;48.794;9.176;2023-10-09T04:20:10;98730.38;;;14.75;83.68
13767;BME280;47980;48.794;9.176;2023-10-09T04:23:03;98729.28;;;14.76;83.18
13767;BME280;47980;48.794;9.176;2023-10-09T04:25:36;98730.81;;;14.77;82.98
13767;BME280;47980;48.794;9.176;2023-10-09T04:28:15;98733.38;;;14.74;82.71
13767;BME280;47980;48.794;9.176;2023-10-09T04:30:52;98733.38;;;14.74;83.29
13767;BME280;47980;48.794;9.176;2023-10-09T04:33:25;98740.97;;;14.72;82.95
13767;BME280;47980;48.794;9.176;2023-10-09T04:36:10;98733.63;;;14.68;83.54
13767;BME280;47980;48.794;9.176;2023-10-09T04:38:53;98732.50;;;14.69;84.35
13767;BME280;47980;48.794;9.176;2023-10-09T04:41:46;98735.53;;;14.68;84.00
13767;BME280;47980;48.794;9.176;2023-10-09T04:44:44;98735.41;;;14.64;84.24
13767;BME280;47980;48.794;9.176;2023-10-09T04:47:40;98736.06;;;14.61;84.71
13767;BME280;47980;48.794;9.176;2023-10-09T04:50:19;98732.28;;;14.62;84.62
13767;BME280;47980;48.794;9.176;2023-10-09T04:53:05;98733.41;;;14.61;84.86
13767;BME280;47980;48.794;9.176;2023-10-09T04:55:53;98734.00;;;14.95;82.55
13767;BME280;47980;48.794;9.176;2023-10-09T04:58:27;98736.69;;;14.95;80.85
13767;BME280;47980;48.794;9.176;2023-10-09T05:01:02;98730.16;;;14.80;83.50
13767;BME280;47980;48.794;9.176;2023-10-09T05:03:47;98726.06;;;14.71;84.63
13767;BME280;47980;48.794;9.176;2023-10-09T05:06:27;98733.97;;;14.67;84.33
13767;BME280;47980;48.794;9.176;2023-10-09T05:09:21;98743.63;;;14.59;85.57
13767;BME280;47980;48.794;9.176;2023-10-09T05:11:52;98736.41;;;14.60;84.30
13767;BME280;47980;48.794;9.176;2023-10-09T05:14:45;98736.63;;;14.67;85.07
13767;BME280;47980;48.794;9.176;2023-10-09T05:17:37;98736.41;;;14.72;84.57
13767;BME280;47980;48.794;9.176;2023-10-09T05:20:10;98745.53;;;14.71;84.45
13767;BME280;47980;48.794;9.176;2023-10-09T05:23:04;98743.06;;;14.66;85.37
13767;BME280;47980;48.794;9.176;2023-10-09T05:25:53;98739.19;;;14.63;84.00
13767;BME280;47980;48.794;9.176;2023-10-09T05:28:24;98735.41;;;14.64;84.54
13767;BME280;47980;48.794;9.176;2023-10-09T05:41:55;98753.19;;;14.73;84.27
13767;BME280;47980;48.794;9.176;2023-10-09T05:44:38;98749.53;;;14.65;84.58
13767;BME280;47980;48.794;9.176;2023-10-09T05:47:48;98748.88;;;14.68;83.18
13767;BME280;47980;48.794;9.176;2023-10-09T05:50:24;98747.97;;;14.76;83.46
13767;BME280;47980;48.794;9.176;2023-10-09T05:53:04;98739.41;;;14.83;83.97
13767;BME280;47980;48.794;9.176;2023-10-09T05:55:40;98749.28;;;14.95;82.99
13767;BME280;47980;48.794;9.176;2023-10-09T05:58:31;98740.59;;;14.98;81.09
13767;BME280;47980;48.794;9.176;2023-10-09T06:01:28;98750.66;;;15.16;81.80
13767;BME280;47980;48.794;9.176;2023-10-09T06:04:25;98751.44;;;15.17;81.21
13767;BME280;47980;48.794;9.176;2023-10-09T06:07:17;98752.09;;;15.26;80.09
13767;BME280;47980;48.794;9.176;2023-10-09T06:09:53;98751.22;;;15.22;80.60
13767;BME280;47980;48.794;9.176;2023-10-09T06:12:26;98749.75;;;15.25;80.90
13767;BME280;47980;48.794;9.176;2023-10-09T06:15:16;98755.44;;;15.23;81.52
13767;BME280;47980;48.794;9.176;2023-10-09T06:18:02;98752.09;;;15.26;81.33
13767;BME280;47980;48.794;9.176;2023-10-09T06:20:56;98757.41;;;15.38;81.63
13767;BME280;47980;48.794;9.176;2023-10-09T06:23:40;98757.06;;;15.40;80.91
13767;BME280;47980;48.794;9.176;2023-10-09T06:26:29;98764.25;;;15.52;81.16
13767;BME280;47980;48.794;9.176;2023-10-09T06:29:03;98765.63;;;15.46;81.34
13767;BME280;47980;48.794;9.176;2023-10-09T06:31:48;98772.03;;;15.57;79.19
13767;BME280;47980;48.794;9.176;2023-10-09T06:34:28;98776.47;;;15.65;78.91
13767;BME280;47980;48.794;9.176;2023-10-09T06:37:06;98776.03;;;15.91;76.45
13767;BME280;47980;48.794;9.176;2023-10-09T06:39:47;98778.44;;;15.80;78.61
13767;BME280;47980;48.794;9.176;2023-10-09T06:42:41;98780.25;;;15.76;79.47
13767;BME280;47980;48.794;9.176;2023-10-09T06:45:14;98778.75;;;15.79;80.63
13767;BME280;47980;48.794;9.176;2023-10-09T06:47:48;98788.56;;;15.87;80.95
13767;BME280;47980;48.794;9.176;2023-10-09T06:50:37;98780.72;;;15.94;79.60
13767;BME280;47980;48.794;9.176;2023-10-09T06:53:22;98790.72;;;15.97;79.87
13767;BME280;47980;48.794;9.176;2023-10-09T06:56:16;98784.59;;;15.97;80.97
13767;BME280;47980;48.794;9.176;2023-10-09T06:58:56;98782.53;;;16.06;79.15
13767;BME280;47980;48.794;9.176;2023-10-09T07:01:29;98788.75;;;16.10;78.13
13767;BME280;47980;48.794;9.176;2023-10-09T07:04:11;98780.13;;;16.17;77.60
13767;BME280;47980;48.794;9.176;2023-10-09T07:06:49;98780.03;;;16.29;77.68
13767;BME280;47980;48.794;9.176;2023-10-09T07:09:21;98784.88;;;16.55;70.58
13767;BME280;47980;48.794;9.176;2023-10-09T07:11:53;98778.13;;;16.77;68.76
13767;BME280;47980;48.794;9.176;2023-10-09T07:14:39;98780.09;;;16.96;66.13
13767;BME280;47980;48.794;9.176;2023-10-09T07:17:29;98782.19;;;17.22;67.59
13767;BME280;47980;48.794;9.176;2023-10-09T07:20:17;98769.47;;;17.38;69.23
13767;BME280;47980;48.794;9.176;2023-10-09T07:23:06;98772.25;;;17.42;70.84
13767;BME280;47980;48.794;9.176;2023-10-09T07:25:48;98784.50;;;17.43;69.36
13767;BME280;47980;48.794;9.176;2023-10-09T07:28:36;98779.22;;;17.46;69.49
13767;BME280;47980;48.794;9.176;2023-10-09T07:31:19;98780.28;;;17.42;69.62
13767;BME280;47980;48.794;9.176;2023-10-09T07:34:09;98787.34;;;17.30;70.73
13767;BME280;47980;48.794;9.176;2023-10-09T07:36:56;98770.31;;;17.23;71.41
13767;BME280;47980;48.794;9.176;2023-10-09T07:39:33;98775.19;;;17.17;71.90
13767;BME280;47980;48.794;9.176;2023-10-09T07:42:08;98779.81;;;17.36;70.81
13767;BME280;47980;48.794;9.176;2023-10-09T07:44:57;98774.06;;;17.38;70.90
13767;BME280;47980;48.794;9.176;2023-10-09T07:47:28;98780.72;;;17.63;69.74
13767;BME280;47980;48.794;9.176;2023-10-09T07:50:38;98785.00;;;17.68;68.87
13767;BME280;47980;48.794;9.176;2023-10-09T07:53:12;98789.13;;;17.81;69.23
13767;BME280;47980;48.794;9.176;2023-10-09T07:55:48;98789.19;;;17.85;68.59
13767;BME280;47980;48.794;9.176;2023-10-09T07:58:25;98787.47;;;17.96;68.96
13767;BME280;47980;48.794;9.176;2023-10-09T08:00:57;98787.66;;;18.07;68.44
13767;BME280;47980;48.794;9.176;2023-10-09T08:03:38;98795.25;;;18.24;67.98
13767;BME280;47980;48.794;9.176;2023-10-09T08:06:10;98794.00;;;18.41;66.64
13767;BME280;47980;48.794;9.176;2023-10-09T08:08:56;98793.22;;;18.40;67.13
13767;BME280;47980;48.794;9.176;2023-10-09T08:11:58;98791.97;;;18.34;66.68
13767;BME280;47980;48.794;9.176;2023-10-09T08:14:44;98800.81;;;18.35;67.82
13767;BME280;47980;48.794;9.176;2023-10-09T08:17:18;98804.13;;;18.51;67.78
13767;BME280;47980;48.794;9.176;2023-10-09T08:19:51;98800.94;;;18.42;66.02
13767;BME280;47980;48.794;9.176;2023-10-09T08:22:24;98803.34;;;18.73;67.04
13767;BME280;47980;48.794;9.176;2023-10-09T08:25:22;98801.53;;;18.78;65.53
13767;BME280;47980;48.794;9.176;2023-10-09T08:28:01;98795.75;;;19.06;63.24
13767;BME280;47980;48.794;9.176;2023-10-09T08:30:58;98797.75;;;19.42;61.87
13767;BME280;47980;48.794;9.176;2023-10-09T08:33:49;98794.13;;;19.58;63.77
13767;BME280;47980;48.794;9.176;2023-10-09T08:36:28;98794.59;;;19.33;65.58
13767;BME280;47980;48.794;9.176;2023-10-09T08:39:06;98802.16;;;19.54;65.25
13767;BME280;47980;48.794;9.176;2023-10-09T08:41:59;98800.81;;;19.71;63.35
13767;BME280;47980;48.794;9.176;2023-10-09T08:44:32;98793.31;;;19.87;61.76
13767;BME280;47980;48.794;9.176;2023-10-09T08:47:05;98794.81;;;19.85;61.17
13767;BME280;47980;48.794;9.176;2023-10-09T08:49:38;98798.47;;;20.03;61.49
13767;BME280;47980;48.794;9.176;2023-10-09T08:52:09;98800.50;;;20.13;61.91
13767;BME280;47980;48.794;9.176;2023-10-09T08:54:43;98798.22;;;20.15;61.44
13767;BME280;47980;48.794;9.176;2023-10-09T08:57:16;98796.75;;;20.25;61.73
13767;BME280;47980;48.794;9.176;2023-10-09T08:59:49;98798.69;;;20.28;62.79
13767;BME280;47980;48.794;9.176;2023-10-09T09:02:21;98806.56;;;20.48;61.18
13767;BME280;47980;48.794;9.176;2023-10-09T09:04:53;98808.34;;;20.29;60.14
13767;BME280;47980;48.794;9.176;2023-10-09T09:07:25;98813.66;;;20.22;60.56
13767;BME280;47980;48.794;9.176;2023-10-09T09:09:59;98815.75;;;20.39;60.15
13767;BME280;47980;48.794;9.176;2023-10-09T09:12:38;98808.47;;;20.43;60.85
13767;BME280;47980;48.794;9.176;2023-10-09T09:15:13;98817.81;;;20.53;61.33
13767;BME280;47980;48.794;9.176;2023-10-09T09:17:50;98815.59;;;20.66;59.34
13767;BME280;47980;48.794;9.176;2023-10-09T09:20:23;98823.25;;;20.60;59.29
13767;BME280;47980;48.794;9.176;2023-10-09T09:23:00;98831.28;;;21.05;58.18
13767;BME280;47980;48.794;9.176;2023-10-09T09:25:42;98836.56;;;20.87;58.43
13767;BME280;47980;48.794;9.176;2023-10-09T09:28:16;98840.56;;;21.11;59.05
13767;BME280;47980;48.794;9.176;2023-10-09T09:30:51;98841.91;;;21.42;57.88
13767;BME280;47980;48.794;9.176;2023-10-09T09:33:25;98837.16;;;21.21;59.03
13767;BME280;47980;48.794;9.176;2023-10-09T09:36:09;98834.50;;;21.28;58.96
13767;BME280;47980;48.794;9.176;2023-10-09T09:38:41;98837.72;;;21.48;58.38
13767;BME280;47980;48.794;9.176;2023-10-09T09:41:18;98835.47;;;21.61;57.83
13767;BME280;47980;48.794;9.176;2023-10-09T09:43:57;98834.50;;;21.25;58.23
13767;BME280;47980;48.794;9.176;2023-10-09T09:46:32;98834.03;;;21.15;57.58
13767;BME280;47980;48.794;9.176;2023-10-09T09:49:05;98839.56;;;21.33;57.31
13767;BME280;47980;48.794;9.176;2023-10-09T09:51:42;98837.00;;;21.62;56.69
13767;BME280;47980;48.794;9.176;2023-10-09T09:54:16;98831.28;;;21.88;56.34
13767;BME280;47980;48.794;9.176;2023-10-09T09:56:53;98839.47;;;22.14;55.63
13767;BME280;47980;48.794;9.176;2023-10-09T09:59:28;98829.84;;;22.16;55.96
13767;BME280;47980;48.794;9.176;2023-10-09T10:02:05;98832.16;;;22.18;55.64
13767;BME280;47980;48.794;9.176;2023-10-09T10:04:40;98835.66;;;22.50;54.66
13767;BME280;47980;48.794;9.176;2023-10-09T10:07:12;98833.72;;;22.47;54.09
13767;BME280;47980;48.794;9.176;2023-10-09T10:09:46;98824.06;;;22.46;53.44
13767;BME280;47980;48.794;9.176;2023-10-09T10:12:49;98832.97;;;22.50;53.43
13767;BME280;47980;48.794;9.176;2023-10-09T10:18:54;98822.16;;;22.50;54.28
13767;BME280;47980;48.794;9.176;2023-10-09T10:21:30;98827.19;;;22.70;52.72
13767;BME280;47980;48.794;9.176;2023-10-09T10:24:42;98825.63;;;22.94;51.51
13767;BME280;47980;48.794;9.176;2023-10-09T10:27:25;98829.09;;;23.01;51.80
13767;BME280;47980;48.794;9.176;2023-10-09T10:30:30;98820.16;;;23.22;51.81
13767;BME280;47980;48.794;9.176;2023-10-09T10:33:06;98817.50;;;23.01;51.37
13767;BME280;47980;48.794;9.176;2023-10-09T10:35:44;98816.31;;;23.05;52.13
13767;BME280;47980;48.794;9.176;2023-10-09T10:38:30;98813.22;;;23.18;52.23
13767;BME280;47980;48.794;9.176;2023-10-09T10:41:11;98814.00;;;23.11;52.61
13767;BME280;47980;48.794;9.176;2023-10-09T10:43:43;98811.69;;;23.06;52.72
13767;BME280;47980;48.794;9.176;2023-10-09T10:46:40;98807.47;;;22.33;56.19
13767;BME280;47980;48.794;9.176;2023-10-09T10:49:14;98809.78;;;22.31;56.37
13767;BME280;47980;48.794;9.176;2023-10-09T10:51:52;98799.72;;;22.68;53.91
13767;BME280;47980;48.794;9.176;2023-10-09T10:54:31;98805.91;;;22.82;53.74
13767;BME280;47980;48.794;9.176;2023-10-09T10:57:22;98812.50;;;22.71;54.03
13767;BME280;47980;48.794;9.176;2023-10-09T10:59:59;98807.09;;;22.60;54.73
13767;BME280;47980;48.794;9.176;2023-10-09T11:02:43;98791.63;;;22.64;56.19
13767;BME280;47980;48.794;9.176;2023-10-09T11:05:14;98807.84;;;22.75;56.20
13767;BME280;47980;48.794;9.176;2023-10-09T11:07:58;98802.44;;;22.93;53.96
13767;BME280;47980;48.794;9.176;2023-10-09T11:10:32;98806.25;;;23.17;54.17
13767;BME280;47980;48.794;9.176;2023-10-09T11:13:04;98803.13;;;23.22;55.97
13767;BME280;47980;48.794;9.176;2023-10-09T11:15:59;98809.94;;;23.62;51.64
13767;BME280;47980;48.794;9.176;2023-10-09T11:18:44;98813.66;;;23.97;50.56
13767;BME280;47980;48.794;9.176;2023-10-09T11:21:17;98811.97;;;24.17;49.79
13767;BME280;47980;48.794;9.176;2023-10-09T11:24:03;98820.06;;;24.24;51.40
13767;BME280;47980;48.794;9.176;2023-10-09T11:26:48;98815.59;;;23.96;53.20
13767;BME280;47980;48.794;9.176;2023-10-09T11:29:25;98809.84;;;23.87;52.40
13767;BME280;47980;48.794;9.176;2023-10-09T11:32:22;98812.00;;;23.29;55.05
13767;BME280;47980;48.794;9.176;2023-10-09T11:35:10;98804.66;;;23.30;52.90
13767;BME280;47980;48.794;9.176;2023-10-09T11:37:55;98808.56;;;23.15;54.21
13767;BME280;47980;48.794;9.176;2023-10-09T11:40:33;98805.06;;;23.21;52.72
13767;BME280;47980;48.794;9.176;2023-10-09T11:43:20;98799.72;;;22.86;54.95
13767;BME280;47980;48.794;9.176;2023-10-09T11:46:08;98797.78;;;23.00;53.90
13767;BME280;47980;48.794;9.176;2023-10-09T11:48:41;98791.59;;;23.00;53.92
13767;BME280;47980;48.794;9.176;2023-10-09T11:51:17;98787.69;;;23.15;52.76
13767;BME280;47980;48.794;9.176;2023-10-09T11:53:51;98787.72;;;22.79;53.82
13767;BME280;47980;48.794;9.176;2023-10-09T11:56:28;98797.03;;;22.61;54.73
13767;BME280;47980;48.794;9.176;2023-10-09T11:59:00;98793.56;;;22.71;54.59
13767;BME280;47980;48.794;9.176;2023-10-09T12:01:34;98785.84;;;22.55;60.51
13767;BME280;47980;48.794;9.176;2023-10-09T12:04:07;98783.50;;;22.43;60.34
13767;BME280;47980;48.794;9.176;2023-10-09T12:06:39;98775.41;;;22.39;61.10
13767;BME280;47980;48.794;9.176;2023-10-09T12:09:12;98768.06;;;22.57;63.32
13767;BME280;47980;48.794;9.176;2023-10-09T12:11:56;98756.47;;;22.57;60.54
13767;BME280;47980;48.794;9.176;2023-10-09T12:14:30;98746.34;;;22.86;58.30
13767;BME280;47980;48.794;9.176;2023-10-09T12:17:04;98761.41;;;23.09;57.76
13767;BME280;47980;48.794;9.176;2023-10-09T12:19:39;98755.03;;;23.54;54.56
13767;BME280;47980;48.794;9.176;2023-10-09T12:22:10;98754.44;;;23.92;50.70
13767;BME280;47980;48.794;9.176;2023-10-09T12:24:46;98745.34;;;24.16;48.08
13767;BME280;47980;48.794;9.176;2023-10-09T12:27:19;98749.06;;;24.40;46.75
13767;BME280;47980;48.794;9.176;2023-10-09T12:29:50;98740.78;;;24.55;45.46
13767;BME280;47980;48.794;9.176;2023-10-09T12:32:22;98731.47;;;24.56;46.53
13767;BME280;47980;48.794;9.176;2023-10-09T12:34:53;98728.44;;;24.88;47.33
13767;BME280;47980;48.794;9.176;2023-10-09T12:37:26;98711.53;;;24.73;49.21
13767;BME280;47980;48.794;9.176;2023-10-09T12:39:59;98705.72;;;24.71;48.70
13767;BME280;47980;48.794;9.176;2023-10-09T12:42:36;98719.56;;;24.84;48.69
13767;BME280;47980;48.794;9.176;2023-10-09T12:45:09;98721.72;;;25.00;47.31
13767;BME280;47980;48.794;9.176;2023-10-09T12:47:41;98726.44;;;24.92;47.41
13767;BME280;47980;48.794;9.176;2023-10-09T12:50:12;98723.47;;;24.79;47.64
13767;BME280;47980;48.794;9.176;2023-10-09T12:52:44;98728.41;;;24.91;46.03
13767;BME280;47980;48.794;9.176;2023-10-09T12:55:18;98726.56;;;24.40;44.25
13767;BME280;47980;48.794;9.176;2023-10-09T12:57:53;98726.34;;;24.65;42.77
13767;BME280;47980;48.794;9.176;2023-10-09T13:00:25;98732.56;;;24.62;42.03
13767;BME280;47980;48.794;9.176;2023-10-09T13:02:56;98729.53;;;24.56;39.92
13767;BME280;47980;48.794;9.176;2023-10-09T13:05:31;98734.59;;;24.06;46.80
13767;BME280;47980;48.794;9.176;2023-10-09T13:08:03;98730.47;;;24.35;39.55
13767;BME280;47980;48.794;9.176;2023-10-09T13:10:34;98723.13;;;24.32;39.54
13767;BME280;47980;48.794;9.176;2023-10-09T13:13:09;98722.94;;;24.12;41.18
13767;BME280;47980;48.794;9.176;2023-10-09T13:15:42;98720.13;;;24.23;41.58
13767;BME280;47980;48.794;9.176;2023-10-09T13:18:13;98715.75;;;24.33;34.93
13767;BME280;47980;48.794;9.176;2023-10-09T13:20:45;98708.63;;;24.53;35.79
13767;BME280;47980;48.794;9.176;2023-10-09T13:23:17;98709.09;;;24.48;38.78
13767;BME280;47980;48.794;9.176;2023-10-09T13:25:48;98699.56;;;24.67;36.79
13767;BME280;47980;48.794;9.176;2023-10-09T13:28:21;98690.13;;;24.79;34.38
13767;BME280;47980;48.794;9.176;2023-10-09T13:30:53;98688.91;;;24.83;34.16
13767;BME280;47980;48.794;9.176;2023-10-09T13:33:27;98682.72;;;25.17;32.10
13767;BME280;47980;48.794;9.176;2023-10-09T13:36:07;98684.50;;;24.96;32.06
13767;BME280;47980;48.794;9.176;2023-10-09T13:38:46;98683.13;;;25.15;28.60
13767;BME280;47980;48.794;9.176;2023-10-09T13:41:18;98693.25;;;25.42;27.42
13767;BME280;47980;48.794;9.176;2023-10-09T13:43:51;98691.78;;;25.64;27.49
13767;BME280;47980;48.794;9.176;2023-10-09T13:46:23;98697.22;;;25.64;28.11
13767;BME280;47980;48.794;9.176;2023-10-09T13:48:54;98679.81;;;25.85;27.55
13767;BME280;47980;48.794;9.176;2023-10-09T13:51:26;98682.31;;;26.00;26.63
13767;BME280;47980;48.794;9.176;2023-10-09T13:53:59;98688.69;;;26.13;26.42
13767;BME280;47980;48.794;9.176;2023-10-09T13:56:30;98684.66;;;26.21;26.00
13767;BME280;47980;48.794;9.176;2023-10-09T13:59:03;98685.91;;;26.40;25.45
13767;BME280;47980;48.794;9.176;2023-10-09T14:01:41;98672.88;;;26.08;26.06
13767;BME280;47980;48.794;9.176;2023-10-09T14:04:19;98670.28;;;26.44;27.29
13767;BME280;47980;48.794;9.176;2023-10-09T14:06:50;98668.06;;;26.15;27.57
13767;BME280;47980;48.794;9.176;2023-10-09T14:09:28;98676.41;;;26.05;26.94
13767;BME280;47980;48.794;9.176;2023-10-09T14:12:01;98674.56;;;25.98;26.40